createdAt,value
2022-11-30T00:00:46.977Z,53.38
2022-11-30T00:03:15.120Z,55.42
2022-11-30T00:05:46.061Z,44.60
2022-11-30T00:08:17.171Z,56.08
2022-11-30T00:10:46.821Z,54.63
2022-11-30T00:13:16.421Z,49.65
2022-11-30T00:15:44.375Z,59.03
2022-11-30T00:18:12.304Z,60.28
2022-11-30T00:20:40.270Z,49.47
2022-11-30T00:23:10.084Z,60.03
2022-11-30T00:26:43.232Z,44.25
2022-11-30T00:28:47.647Z,44.47
2022-11-30T00:31:22.962Z,44.58
2022-11-30T00:33:54.077Z,42.83
2022-11-30T00:36:31.430Z,41.58
2022-11-30T00:39:35.930Z,40.83
2022-11-30T00:43:38.558Z,37.55
2022-11-30T00:45:52.589Z,34.63
2022-11-30T00:48:22.280Z,38.70
2022-11-30T00:50:52.449Z,36.13
2022-11-30T00:53:22.805Z,37.30
2022-11-30T00:55:52.955Z,34.35
2022-11-30T00:58:23.144Z,34.45
2022-11-30T01:00:54.859Z,33.60
2022-11-30T01:03:45.133Z,36.92
2022-11-30T01:06:15.098Z,35.83
2022-11-30T01:08:43.057Z,37.30
2022-11-30T01:11:17.819Z,36.45
2022-11-30T01:13:45.903Z,36.08
2022-11-30T01:16:24.396Z,38.20
2022-11-30T01:18:55.002Z,34.42
2022-11-30T01:22:17.941Z,34.55
2022-11-30T01:24:30.099Z,35.38
2022-11-30T01:27:01.389Z,34.97
2022-11-30T01:29:35.374Z,37.40
2022-11-30T01:32:06.254Z,35.17
2022-11-30T01:34:34.648Z,35.28
2022-11-30T01:37:02.584Z,34.78
2022-11-30T01:39:46.748Z,34.47
2022-11-30T01:42:17.032Z,36.88
2022-11-30T01:44:56.450Z,34.33
2022-11-30T01:47:31.501Z,33.72
2022-11-30T01:50:05.755Z,34.28
2022-11-30T01:52:38.521Z,36.97
2022-11-30T01:55:15.450Z,35.53
2022-11-30T01:57:49.083Z,38.28
2022-11-30T02:00:17.480Z,35.45
2022-11-30T02:02:53.936Z,39.70
2022-11-30T02:05:23.098Z,36.53
2022-11-30T02:07:51.274Z,36.05
2022-11-30T02:10:25.118Z,36.58
2022-11-30T02:13:19.170Z,37.13
2022-11-30T02:15:57.502Z,38.17
2022-11-30T02:18:32.282Z,37.08
2022-11-30T02:21:12.073Z,36.60
2022-11-30T02:24:17.658Z,35.38
2022-11-30T02:26:59.716Z,33.13
2022-11-30T02:29:33.125Z,33.47
2022-11-30T02:32:08.000Z,34.58
2022-11-30T02:34:38.186Z,35.13
2022-11-30T02:37:08.019Z,33.72
2022-11-30T02:39:36.142Z,30.92
2022-11-30T02:42:04.182Z,30.55
2022-11-30T02:44:33.715Z,31.95
2022-11-30T02:47:13.281Z,28.80
2022-11-30T02:49:48.871Z,30.23
2022-11-30T02:52:17.478Z,30.08
2022-11-30T02:54:48.049Z,32.45
2022-11-30T02:57:16.276Z,29.77
2022-11-30T02:59:45.762Z,31.05
2022-11-30T03:02:13.995Z,30.17
2022-11-30T03:04:41.966Z,30.25
2022-11-30T03:07:09.895Z,27.85
2022-11-30T03:09:37.835Z,29.95
2022-11-30T03:12:06.329Z,29.17
2022-11-30T03:14:34.208Z,30.05
2022-11-30T03:17:05.696Z,29.38
2022-11-30T03:19:33.691Z,30.63
2022-11-30T03:22:01.585Z,29.23
2022-11-30T03:24:29.483Z,32.67
2022-11-30T03:26:57.341Z,30.30
2022-11-30T03:29:25.211Z,29.10
2022-11-30T03:31:53.144Z,31.30
2022-11-30T03:34:22.797Z,28.70
2022-11-30T03:36:50.666Z,29.42
2022-11-30T03:39:18.756Z,27.95
2022-11-30T03:41:46.607Z,28.52
2022-11-30T03:44:14.787Z,29.98
2022-11-30T03:46:42.609Z,29.40
2022-11-30T03:49:10.432Z,32.85
2022-11-30T03:51:39.731Z,31.83
2022-11-30T03:54:07.528Z,32.33
2022-11-30T05:29:37.532Z,29.92
2022-11-30T08:43:26.628Z,32.78
2022-11-30T08:45:57.329Z,35.33
2022-11-30T08:48:26.217Z,33.85
2022-11-30T08:50:54.172Z,33.30
2022-11-30T08:53:21.881Z,34.58
2022-11-30T08:55:56.976Z,34.70
2022-11-30T08:58:26.317Z,33.63
2022-11-30T09:00:54.278Z,33.92
2022-11-30T09:03:22.417Z,35.40
2022-11-30T09:05:50.274Z,35.53
2022-11-30T09:08:18.104Z,34.25
2022-11-30T09:10:45.822Z,34.55
2022-11-30T09:13:16.867Z,31.90
2022-11-30T09:15:46.241Z,36.17
2022-11-30T09:18:14.781Z,32.85
2022-11-30T09:20:42.622Z,34.35
2022-11-30T09:23:10.563Z,33.60
2022-11-30T09:25:38.307Z,33.30
2022-11-30T09:28:12.018Z,33.35
2022-11-30T09:30:40.346Z,32.95
2022-11-30T09:33:09.664Z,35.13
2022-11-30T09:35:37.534Z,32.85
2022-11-30T09:38:06.113Z,32.92
2022-11-30T09:40:36.065Z,34.25
2022-11-30T09:43:08.065Z,33.42
2022-11-30T09:45:38.140Z,33.60
2022-11-30T09:48:25.348Z,33.42
2022-11-30T09:50:55.919Z,33.50
2022-11-30T09:53:29.870Z,34.67
2022-11-30T09:56:00.117Z,33.60
2022-11-30T09:58:39.164Z,32.95
2022-11-30T10:01:14.593Z,33.97
2022-11-30T10:03:44.062Z,32.13
2022-11-30T10:06:18.147Z,32.67
2022-11-30T10:09:01.221Z,32.78
2022-11-30T10:11:42.392Z,32.58
2022-11-30T10:14:35.334Z,33.10
2022-11-30T10:20:01.885Z,31.20
2022-11-30T10:22:40.371Z,34.05
2022-11-30T10:25:24.929Z,32.20
2022-11-30T10:27:57.491Z,32.15
2022-11-30T10:32:56.867Z,33.17
2022-11-30T10:35:42.382Z,32.45
2022-11-30T10:38:16.457Z,31.88
2022-11-30T10:40:50.445Z,34.05
2022-11-30T10:43:26.854Z,31.40
2022-11-30T10:45:54.822Z,33.47
2022-11-30T10:48:29.473Z,34.60
2022-11-30T10:50:59.846Z,33.03
2022-11-30T10:53:27.893Z,31.70
2022-11-30T10:56:02.875Z,30.70
2022-11-30T10:58:34.317Z,30.48
2022-11-30T11:01:05.707Z,29.90
2022-11-30T11:03:34.805Z,21.52
2022-11-30T11:06:23.065Z,32.03
2022-11-30T11:08:51.347Z,33.20
2022-11-30T11:11:31.404Z,31.58
2022-11-30T11:14:20.092Z,31.98
2022-11-30T11:16:54.217Z,32.83
2022-11-30T11:19:31.822Z,32.70
2022-11-30T11:22:03.578Z,31.65
2022-11-30T11:24:31.898Z,32.95
2022-11-30T11:27:00.129Z,31.55
2022-11-30T11:29:34.436Z,30.95
2022-11-30T11:32:19.036Z,30.52
2022-11-30T11:34:51.115Z,30.90
2022-11-30T11:37:23.459Z,28.80
2022-11-30T11:40:00.541Z,31.73
2022-11-30T11:42:31.353Z,31.80
2022-11-30T11:45:01.359Z,30.80
2022-11-30T11:47:36.369Z,33.67
2022-11-30T11:50:50.004Z,29.90
2022-11-30T11:53:25.074Z,30.33
2022-11-30T11:55:57.439Z,30.02
2022-11-30T11:58:38.142Z,32.00
2022-11-30T12:01:38.590Z,31.77
2022-11-30T12:04:13.870Z,32.10
2022-11-30T12:06:45.884Z,30.60
2022-11-30T12:09:19.454Z,32.63
2022-11-30T12:11:50.955Z,31.98
2022-11-30T12:14:20.586Z,32.15
2022-11-30T12:17:03.698Z,30.75
2022-11-30T12:19:38.271Z,30.42
2022-11-30T12:22:16.932Z,30.73
2022-11-30T12:25:14.253Z,30.63
2022-11-30T12:27:53.625Z,31.17
2022-11-30T12:30:24.966Z,30.38
2022-11-30T12:33:12.942Z,30.38
2022-11-30T12:35:52.416Z,30.33
2022-11-30T12:38:32.865Z,31.67
2022-11-30T12:41:15.155Z,29.85
2022-11-30T12:43:49.726Z,32.08
2022-11-30T12:46:28.706Z,30.30
2022-11-30T12:49:13.479Z,29.40
2022-11-30T12:51:47.831Z,30.98
2022-11-30T12:54:26.225Z,29.95
2022-11-30T12:57:01.355Z,29.17
2022-11-30T12:59:37.021Z,29.58
2022-11-30T13:02:32.336Z,29.05
2022-11-30T13:05:04.840Z,28.15
2022-11-30T13:10:09.908Z,29.30
2022-11-30T13:12:43.806Z,28.55
2022-11-30T13:15:17.240Z,28.55
2022-11-30T13:17:46.331Z,28.60
2022-11-30T13:20:22.380Z,29.13
2022-11-30T13:22:57.067Z,29.13
2022-11-30T13:26:06.923Z,29.20
2022-11-30T13:28:32.578Z,28.92
2022-11-30T13:31:05.892Z,29.35
2022-11-30T13:34:00.865Z,28.15
2022-11-30T13:36:34.038Z,28.23
2022-11-30T13:39:29.873Z,28.25
2022-11-30T13:42:34.445Z,28.60
2022-11-30T13:45:20.173Z,28.17
2022-11-30T13:47:51.245Z,27.88
2022-11-30T13:50:27.751Z,28.67
2022-11-30T13:53:34.027Z,28.90
2022-11-30T13:56:08.071Z,28.63
2022-11-30T13:58:36.284Z,28.52
2022-11-30T14:01:26.287Z,27.33
2022-11-30T14:04:23.955Z,27.73
2022-11-30T14:06:55.647Z,27.83
2022-11-30T14:09:59.165Z,28.75
2022-11-30T14:12:58.737Z,27.88
2022-11-30T14:15:56.587Z,26.75
2022-11-30T14:18:34.497Z,26.00
2022-11-30T14:21:04.726Z,26.73
2022-11-30T14:23:41.431Z,27.40
2022-11-30T14:26:11.532Z,26.17
2022-11-30T14:28:44.811Z,28.92
2022-11-30T14:31:18.827Z,26.73
2022-11-30T14:33:52.789Z,26.70
2022-11-30T14:36:42.029Z,25.55
2022-11-30T14:39:26.367Z,25.80
2022-11-30T14:41:54.409Z,26.02
2022-11-30T14:44:22.335Z,23.60
2022-11-30T14:46:57.997Z,23.85
2022-11-30T14:49:27.173Z,24.05
2022-11-30T14:52:00.195Z,23.67
2022-11-30T14:54:45.108Z,24.67
2022-11-30T14:57:19.881Z,24.00
2022-11-30T14:59:51.365Z,23.40
2022-11-30T15:02:27.506Z,19.75
2022-11-30T15:04:59.617Z,23.63
2022-11-30T15:07:29.717Z,23.40
2022-11-30T15:10:04.765Z,23.10
2022-11-30T15:12:33.302Z,23.70
2022-11-30T15:15:15.476Z,24.17
2022-11-30T15:17:53.071Z,23.58
2022-11-30T15:20:31.531Z,24.02
2022-11-30T15:23:00.551Z,23.98
2022-11-30T15:25:36.058Z,24.90
2022-11-30T15:28:04.940Z,23.35
2022-11-30T15:30:34.477Z,24.85
2022-11-30T15:33:02.345Z,24.48
2022-11-30T15:35:50.332Z,22.83
2022-11-30T15:38:22.657Z,24.65
2022-11-30T15:40:54.527Z,24.02
2022-11-30T15:43:25.748Z,24.50
2022-11-30T15:45:56.676Z,25.70
2022-11-30T15:48:30.237Z,25.92
2022-11-30T15:50:59.776Z,25.67
2022-11-30T15:53:48.642Z,25.77
2022-11-30T15:56:25.101Z,27.38
2022-11-30T15:59:02.743Z,26.65
2022-11-30T16:01:32.169Z,24.88
2022-11-30T16:04:05.679Z,25.15
2022-11-30T16:06:37.280Z,25.77
2022-11-30T16:09:17.129Z,26.03
2022-11-30T16:11:44.926Z,24.88
2022-11-30T16:14:16.631Z,24.80
2022-11-30T16:16:45.311Z,26.42
2022-11-30T16:19:13.319Z,25.20
2022-11-30T16:21:42.806Z,24.55
2022-11-30T16:24:14.469Z,26.25
2022-11-30T16:26:50.893Z,25.97
2022-11-30T16:29:19.594Z,25.17
2022-11-30T16:31:47.583Z,26.45
2022-11-30T16:34:15.489Z,25.90
2022-11-30T16:36:45.581Z,25.92
2022-11-30T16:39:14.410Z,27.85
2022-11-30T16:41:43.596Z,25.40
2022-11-30T16:44:14.774Z,25.08
2022-11-30T16:46:42.868Z,25.08
2022-11-30T16:49:11.843Z,26.17
2022-11-30T16:51:42.029Z,23.00
2022-11-30T16:54:13.676Z,22.92
2022-11-30T16:56:42.075Z,24.07
2022-11-30T16:59:16.216Z,23.33
2022-11-30T17:01:46.950Z,23.67
2022-11-30T17:04:19.324Z,22.95
2022-11-30T17:06:50.572Z,23.73
2022-11-30T17:09:22.110Z,25.70
2022-11-30T17:11:51.591Z,23.85
2022-11-30T17:14:22.881Z,24.13
2022-11-30T17:16:50.806Z,25.00
2022-11-30T17:19:18.818Z,23.92
2022-11-30T17:21:48.390Z,22.45
2022-11-30T17:24:16.352Z,24.65
2022-11-30T17:26:45.974Z,22.23
2022-11-30T17:29:13.920Z,24.58
2022-11-30T17:31:44.892Z,23.45
2022-11-30T17:34:12.919Z,23.90
2022-11-30T17:36:57.105Z,21.88
2022-11-30T17:39:25.600Z,20.95
2022-11-30T17:41:55.624Z,24.05
2022-11-30T17:44:23.491Z,21.85
2022-11-30T17:46:51.471Z,19.85
2022-11-30T17:49:19.497Z,19.27
2022-11-30T17:51:47.452Z,18.75
2022-11-30T17:54:15.510Z,20.08
2022-11-30T17:56:43.762Z,18.23
2022-11-30T17:59:13.471Z,17.83
2022-11-30T18:01:41.547Z,18.50
2022-11-30T18:04:09.903Z,18.73
2022-11-30T18:06:37.687Z,19.48
2022-11-30T18:09:05.728Z,19.63
2022-11-30T18:11:36.190Z,19.52
2022-11-30T18:14:05.705Z,19.50
2022-11-30T18:16:38.124Z,19.92
2022-11-30T18:21:40.397Z,18.48
2022-11-30T18:24:08.725Z,18.92
2022-11-30T18:26:36.430Z,20.52
2022-11-30T18:29:04.257Z,18.10
2022-11-30T18:31:37.736Z,17.33
2022-11-30T18:34:08.309Z,21.27
2022-11-30T18:36:36.195Z,15.88
2022-11-30T18:39:04.096Z,20.58
2022-11-30T18:41:31.876Z,19.30
2022-11-30T18:43:59.705Z,19.92
2022-11-30T18:46:33.067Z,19.67
2022-11-30T18:49:01.767Z,19.42
2022-11-30T18:51:32.252Z,20.13
2022-11-30T18:54:01.677Z,17.90
2022-11-30T18:56:31.157Z,18.73
2022-11-30T18:58:59.942Z,18.48
2022-11-30T19:01:32.782Z,18.90
2022-11-30T19:04:02.793Z,19.98
2022-11-30T19:06:33.130Z,18.45
2022-11-30T19:09:04.331Z,18.77
2022-11-30T19:11:42.783Z,18.30
2022-11-30T19:14:14.075Z,16.80
2022-11-30T19:16:44.564Z,18.63
2022-11-30T19:19:15.044Z,17.83
2022-11-30T19:21:47.786Z,19.38
2022-11-30T19:24:16.601Z,18.67
2022-11-30T19:26:46.984Z,17.77
2022-11-30T19:29:14.849Z,18.80
2022-11-30T19:31:42.858Z,18.55
2022-11-30T19:34:13.078Z,17.15
2022-11-30T19:36:41.522Z,15.35
2022-11-30T19:39:11.399Z,16.92
2022-11-30T19:41:39.338Z,14.38
2022-11-30T19:44:07.237Z,17.15
2022-11-30T19:46:35.259Z,17.73
2022-11-30T19:49:03.702Z,16.80
2022-11-30T19:51:32.468Z,15.93
2022-11-30T19:54:00.424Z,16.98
2022-11-30T19:56:31.368Z,16.23
2022-11-30T19:59:04.620Z,16.90
2022-11-30T20:01:34.505Z,15.18
2022-11-30T20:04:03.412Z,15.30
2022-11-30T20:06:32.827Z,14.13
2022-11-30T20:09:00.719Z,15.95
2022-11-30T20:11:30.005Z,14.90
2022-11-30T20:13:58.449Z,15.38
2022-11-30T20:16:26.377Z,14.45
2022-11-30T20:18:55.907Z,14.55
2022-11-30T20:21:25.964Z,14.93
2022-11-30T20:23:57.939Z,14.10
2022-11-30T20:26:30.013Z,15.18
2022-11-30T20:29:00.979Z,14.80
2022-11-30T20:31:30.266Z,14.15
2022-11-30T20:33:58.174Z,14.35
2022-11-30T20:36:26.857Z,14.48
2022-11-30T20:38:54.961Z,15.00
2022-11-30T20:41:24.997Z,15.90
2022-11-30T20:43:53.597Z,15.32
2022-11-30T20:46:24.987Z,14.98
2022-11-30T20:48:53.594Z,15.38
2022-11-30T20:51:33.472Z,15.68
2022-11-30T20:54:03.638Z,14.52
2022-11-30T20:56:31.776Z,14.52
2022-11-30T20:59:02.782Z,14.63
2022-11-30T21:01:32.023Z,14.85
2022-11-30T21:04:00.904Z,15.38
2022-11-30T21:06:29.665Z,14.68
2022-11-30T21:08:57.684Z,15.45
2022-11-30T21:11:25.555Z,15.98
2022-11-30T21:13:53.364Z,14.35
2022-11-30T21:16:27.673Z,16.17
2022-11-30T21:18:59.246Z,14.80
2022-11-30T21:21:30.500Z,15.55
2022-11-30T21:24:00.310Z,14.98
2022-11-30T21:26:30.373Z,14.88
2022-11-30T21:29:01.799Z,14.50
2022-11-30T21:31:30.266Z,15.98
2022-11-30T21:33:59.986Z,13.73
2022-11-30T21:36:27.955Z,27.92
2022-11-30T21:39:04.146Z,17.80
2022-11-30T21:41:33.872Z,17.60
2022-11-30T21:44:04.236Z,16.55
2022-11-30T21:46:32.122Z,17.60
2022-11-30T21:49:01.388Z,16.63
2022-11-30T21:51:31.631Z,17.60
2022-11-30T21:54:01.750Z,17.33
2022-11-30T21:56:36.481Z,17.48
2022-11-30T21:59:06.842Z,18.95
2022-11-30T22:01:37.791Z,17.67
2022-11-30T22:04:09.555Z,19.60
2022-11-30T22:06:39.722Z,18.67
2022-11-30T22:09:09.791Z,19.88
2022-11-30T22:11:39.657Z,19.63
2022-11-30T22:14:08.556Z,20.13
2022-11-30T22:16:36.809Z,21.00
2022-11-30T22:19:07.408Z,20.08
2022-11-30T22:21:35.793Z,21.25
2022-11-30T22:24:06.002Z,22.55
2022-11-30T22:26:35.690Z,22.33
2022-11-30T22:29:05.851Z,22.17
2022-11-30T22:31:35.611Z,22.23
2022-11-30T22:34:04.219Z,22.70
2022-11-30T22:36:36.267Z,22.17
2022-11-30T22:39:06.562Z,23.10
2022-11-30T22:41:34.744Z,24.77
2022-11-30T22:44:02.815Z,24.50
2022-11-30T22:46:32.645Z,25.25
2022-11-30T22:49:01.502Z,24.77
2022-11-30T22:51:32.189Z,24.40
2022-11-30T22:54:02.381Z,23.88
2022-11-30T22:56:32.054Z,26.00
2022-11-30T22:59:01.150Z,23.80
2022-11-30T23:01:30.631Z,25.73
2022-11-30T23:04:03.757Z,27.00
2022-11-30T23:06:31.720Z,26.92
2022-11-30T23:09:01.003Z,25.88
2022-11-30T23:11:30.317Z,26.13
2022-11-30T23:13:58.213Z,27.70
2022-11-30T23:16:26.490Z,27.05
2022-11-30T23:18:57.245Z,27.55
2022-11-30T23:21:27.089Z,26.67
2022-11-30T23:23:56.341Z,25.90
2022-11-30T23:26:27.565Z,27.85
2022-11-30T23:28:56.931Z,27.52
2022-11-30T23:31:34.219Z,28.27
2022-11-30T23:34:06.031Z,29.95
2022-11-30T23:36:34.107Z,27.77
2022-11-30T23:39:04.693Z,27.38
2022-11-30T23:41:34.019Z,28.45
2022-11-30T23:44:02.526Z,26.27
2022-11-30T23:46:30.763Z,28.20
2022-11-30T23:48:58.699Z,28.58
2022-11-30T23:51:30.197Z,29.17
2022-11-30T23:53:58.052Z,30.02
2022-11-30T23:56:26.067Z,29.40
2022-11-30T23:58:55.327Z,28.60
